Аэропорт: Храброво. Калининград

ICAO: UMKK

METAR:
2020-10-23 10:30:00
UMKK 231030Z 25009MPS 9999 BKN023 14/10 Q1009 R24/19//95 NOSIG RMK QFE755/1007
METAR:
2020-10-23 07:55:00
TAF UMKK 230755Z 2309/2409 26007G13MPS 9999 SCT011 TEMPO 2309/2312 27009G15MPS -SHRA BKN020CB BECMG 2315/2317 23003G08MPS FM240000 VRB01MPS 3100 BR SCT006 TEMPO 2400/2406 0300 FG SCT003 BECMG 2406/2407 22003MPS